ADDS METAR Data INFO
IDs: Format: Raw Decoded Include TAF

Data at: 0718 UTC 24 Jun 2018

KOAK 240653Z 33008KT 10SM CLR 16/13 A2977 RMK AO2 SLP080 T01610128
KOAK 240553Z 36006KT 10SM CLR 17/12 A2977 RMK AO2 SLP079 T01670117 10272 20167 51017
KOAK 240453Z 31004KT 10SM CLR 18/13 A2975 RMK AO2 SLP075 T01780128
KOAK 240353Z 30010KT 10SM CLR 18/13 A2973 RMK AO2 SLP068 T01780128
KOAK 240253Z 29010KT 10SM CLR 20/13 A2972 RMK AO2 SLP062 T02000128 55002
KOAK 240153Z 30009KT 10SM CLR 22/13 A2971 RMK AO2 SLP062 T02220128
KOAK 240053Z 30012KT 10SM CLR 24/14 A2971 RMK AO2 SLP061 T02390139
KOAK 232353Z 30012KT 10SM CLR 26/13 A2972 RMK AO2 SLP064 T02610133 10300 20256 58012
KOAK 232253Z 31010KT 10SM CLR 27/13 A2973 RMK AO2 SLP069 T02670128
KOAK 232153Z 30011KT 10SM CLR 27/12 A2975 RMK AO2 SLP074 T02720122
KOAK 232053Z 29011KT 10SM CLR 29/12 A2976 RMK AO2 SLP076 T02890122 58012
KOAK 231953Z 24008KT 10SM CLR 28/14 A2977 RMK AO2 SLP082 T02830144
KOAK 231853Z 30010KT 10SM CLR 28/11 A2979 RMK AO2 SLP086 T02830111
KOAK 231753Z 30008KT 10SM CLR 26/13 A2979 RMK AO2 SLP088 T02560133 10256 20128 58004
KOAK 231653Z 30007KT 10SM CLR 23/14 A2980 RMK AO2 SLP092 T02280139
KOAK 231553Z 30006KT 10SM CLR 20/14 A2981 RMK AO2 SLP095 T02000144
KOAK 231453Z 00000KT 10SM CLR 18/13 A2981 RMK AO2 SLP093 T01780133 51006
KOAK 231353Z 00000KT 10SM CLR 16/13 A2980 RMK AO2 SLP091 T01610128
KOAK 231253Z 03003KT 10SM CLR 14/11 A2980 RMK AO2 SLP089 T01390111
KOAK 231153Z 36003KT 10SM CLR 14/12 A2979 RMK AO2 SLP087 T01390117 10161 20133 55003
KOAK 231053Z 00000KT 10SM CLR 14/11 A2979 RMK AO2 SLP086 T01390111
KOAK 230953Z 32005KT 10SM CLR 14/12 A2980 RMK AO2 SLP089 T01440117
KOAK 230853Z 32003KT 10SM CLR 15/12 A2980 RMK AO2 SLP089 T01500122 56009
KOAK 230753Z 30007KT 10SM CLR 15/12 A2980 RMK AO2 SLP091 T01500117 402670111
KOAK 230653Z 29006KT 10SM CLR 16/12 A2981 RMK AO2 SLP094 T01560122
KOAK 230553Z 30006KT 10SM CLR 16/12 A2983 RMK AO2 SLP098 T01610117 10233 20156 53002
KOAK 230453Z 29010KT 10SM CLR 16/12 A2982 RMK AO2 SLP098 T01610122
KOAK 230353Z 28009KT 10SM CLR 17/13 A2981 RMK AO2 SLP095 T01720128
KOAK 230253Z 29012KT 10SM CLR 18/12 A2982 RMK AO2 SLP096 T01830122 56010
KOAK 230153Z 27012KT 10SM CLR 20/13 A2982 RMK AO2 SLP098 T02000128
KOAK 230053Z 29012KT 10SM CLR 22/12 A2983 RMK AO2 SLP101 T02170117
KOAK 222353Z 29016KT 10SM FEW200 23/12 A2985 RMK AO2 SLP107 T02280117 10267 20183 56017
KOAK 222253Z 29013KT 10SM FEW200 24/12 A2986 RMK AO2 SLP111 T02440117
KOAK 222153Z COR 30013KT 10SM FEW200 26/12 A2988 RMK AO2 SLP117 T02610117
KOAK 222053Z 31010KT 10SM CLR 26/11 A2990 RMK AO2 SLP124 T02560111 58018
KOAK 221953Z 27008KT 10SM FEW200 25/11 A2992 RMK AO2 SLP131 T02500106